createdAt,value
2023-04-27T00:00:26.474Z,7.79
2023-04-27T00:01:26.526Z,7.70
2023-04-27T00:02:26.700Z,7.85
2023-04-27T00:03:26.983Z,7.84
2023-04-27T00:04:26.868Z,7.87
2023-04-27T00:05:26.832Z,7.73
2023-04-27T00:06:26.836Z,7.75
2023-04-27T00:07:26.855Z,7.77
2023-04-27T00:08:26.929Z,7.87
2023-04-27T00:09:27.014Z,7.66
2023-04-27T00:10:27.041Z,7.82
2023-04-27T00:11:27.138Z,7.64
2023-04-27T00:12:27.214Z,7.69
2023-04-27T00:13:27.242Z,7.69
2023-04-27T00:14:27.292Z,7.66
2023-04-27T00:15:27.350Z,7.72
2023-04-27T00:16:27.476Z,7.73
2023-04-27T00:17:27.530Z,7.76
2023-04-27T00:18:27.581Z,7.72
2023-04-27T00:19:27.618Z,7.62
2023-04-27T00:20:27.690Z,7.65
2023-04-27T00:21:27.758Z,7.60
2023-04-27T00:22:27.818Z,7.60
2023-04-27T00:23:27.857Z,7.50
2023-04-27T00:24:27.932Z,7.48
2023-04-27T00:25:27.969Z,7.50
2023-04-27T00:26:28.037Z,7.49
2023-04-27T00:27:28.107Z,7.58
2023-04-27T00:28:28.150Z,7.41
2023-04-27T00:29:28.209Z,7.43
2023-04-27T00:30:28.231Z,7.38
2023-04-27T00:31:28.303Z,7.52
2023-04-27T00:32:28.398Z,7.30
2023-04-27T00:33:28.419Z,7.31
2023-04-27T00:34:28.448Z,7.40
2023-04-27T00:35:28.568Z,7.54
2023-04-27T00:36:28.564Z,7.47
2023-04-27T00:37:28.622Z,7.47
2023-04-27T00:38:28.673Z,7.36
2023-04-27T00:39:28.935Z,7.33
2023-04-27T00:40:28.795Z,7.29
2023-04-27T00:41:28.845Z,7.34
2023-04-27T00:42:28.901Z,7.35
2023-04-27T00:43:28.959Z,7.32
2023-04-27T00:44:29.020Z,7.29
2023-04-27T00:45:29.081Z,7.25
2023-04-27T00:46:29.162Z,7.37
2023-04-27T00:47:29.488Z,7.32
2023-04-27T00:48:29.202Z,7.35
2023-04-27T00:49:29.319Z,7.10
2023-04-27T00:50:29.377Z,7.30
2023-04-27T00:51:29.481Z,7.24
2023-04-27T00:52:29.483Z,7.36
2023-04-27T00:53:29.595Z,7.33
2023-04-27T00:54:29.626Z,7.12
2023-04-27T00:55:29.717Z,7.11
2023-04-27T00:56:29.832Z,7.23
2023-04-27T00:57:29.832Z,7.19
2023-04-27T00:58:29.844Z,6.96
2023-04-27T00:59:29.880Z,7.14
2023-04-27T01:00:29.948Z,7.06
2023-04-27T01:01:30.070Z,6.98
2023-04-27T01:02:30.260Z,7.11
2023-04-27T01:03:30.252Z,7.08
2023-04-27T01:04:30.211Z,7.00
2023-04-27T01:05:31.976Z,7.03
2023-04-27T01:06:30.244Z,7.08
2023-04-27T01:07:30.350Z,7.01
2023-04-27T01:08:30.355Z,7.01
2023-04-27T01:09:30.426Z,7.00
2023-04-27T01:10:30.467Z,7.03
2023-04-27T01:11:30.533Z,6.99
2023-04-27T01:12:30.598Z,6.87
2023-04-27T01:13:30.593Z,6.94
2023-04-27T01:14:30.653Z,6.88
2023-04-27T01:15:30.731Z,6.91
2023-04-27T01:16:30.820Z,6.88
2023-04-27T01:17:30.846Z,6.82
2023-04-27T01:18:30.885Z,6.86
2023-04-27T01:19:30.943Z,6.95
2023-04-27T01:20:31.008Z,6.88
2023-04-27T01:21:31.057Z,6.79
2023-04-27T01:22:31.114Z,6.74
2023-04-27T01:23:31.161Z,6.66
2023-04-27T01:24:31.185Z,6.85
2023-04-27T01:25:31.254Z,6.84
2023-04-27T01:26:31.482Z,6.88
2023-04-27T01:27:31.409Z,6.83
2023-04-27T01:28:31.460Z,6.78
2023-04-27T01:29:31.510Z,6.80
2023-04-27T01:30:31.582Z,6.82
2023-04-27T01:31:31.695Z,6.75
2023-04-27T01:32:31.791Z,6.84
2023-04-27T01:33:31.762Z,6.79
2023-04-27T01:34:31.761Z,6.69
2023-04-27T01:35:31.842Z,6.77
2023-04-27T01:36:31.885Z,6.57
2023-04-27T01:37:31.934Z,6.68
2023-04-27T01:38:32.003Z,6.56
2023-04-27T01:39:32.054Z,6.78
2023-04-27T01:40:32.075Z,6.72
2023-04-27T01:41:32.127Z,6.65
2023-04-27T01:42:32.171Z,6.61
2023-04-27T01:43:32.249Z,6.63
2023-04-27T01:44:32.295Z,6.65
2023-04-27T01:45:32.358Z,6.64
2023-04-27T01:46:32.488Z,6.61
2023-04-27T01:47:32.545Z,6.68
2023-04-27T01:48:32.618Z,6.51
2023-04-27T01:49:32.651Z,6.62
2023-04-27T01:50:32.746Z,6.59
2023-04-27T01:51:32.848Z,6.41
2023-04-27T01:52:32.816Z,6.46
2023-04-27T01:53:32.816Z,6.60
2023-04-27T01:54:32.879Z,6.49
2023-04-27T01:55:32.887Z,6.44
2023-04-27T01:56:32.991Z,6.48
2023-04-27T01:57:32.951Z,6.52
2023-04-27T01:58:33.011Z,6.52
2023-04-27T01:59:33.100Z,6.51
2023-04-27T02:00:33.283Z,6.37
2023-04-27T02:01:33.248Z,6.43
2023-04-27T02:02:33.419Z,6.47
2023-04-27T02:03:33.572Z,6.43
2023-04-27T02:04:33.493Z,6.45
2023-04-27T02:05:33.356Z,6.46
2023-04-27T02:06:33.459Z,6.48
2023-04-27T02:07:33.531Z,6.42
2023-04-27T02:08:33.658Z,6.34
2023-04-27T02:09:33.697Z,6.45
2023-04-27T02:10:33.796Z,6.48
2023-04-27T02:11:33.874Z,6.23
2023-04-27T02:12:33.917Z,6.39
2023-04-27T02:13:33.928Z,6.31
2023-04-27T02:14:34.077Z,6.39
2023-04-27T02:15:33.987Z,6.40
2023-04-27T02:16:34.076Z,6.27
2023-04-27T02:17:34.118Z,6.18
2023-04-27T02:18:34.111Z,6.39
2023-04-27T02:19:34.217Z,6.26
2023-04-27T02:20:34.167Z,6.34
2023-04-27T02:21:34.258Z,6.28
2023-04-27T02:22:34.350Z,6.35
2023-04-27T02:23:34.403Z,6.28
2023-04-27T02:24:34.480Z,6.23
2023-04-27T02:25:34.512Z,6.28
2023-04-27T02:26:34.584Z,6.33
2023-04-27T02:27:34.650Z,6.25
2023-04-27T02:28:34.629Z,6.21
2023-04-27T02:29:34.743Z,6.33
2023-04-27T02:30:34.810Z,6.18
2023-04-27T02:31:34.987Z,6.14
2023-04-27T02:32:34.871Z,6.27
2023-04-27T02:33:34.944Z,6.13
2023-04-27T02:34:34.984Z,6.13
2023-04-27T02:35:35.055Z,6.14
2023-04-27T02:36:35.108Z,6.15
2023-04-27T02:37:35.128Z,6.14
2023-04-27T02:38:35.161Z,6.12
2023-04-27T02:39:35.168Z,6.13
2023-04-27T02:40:35.288Z,5.99
2023-04-27T02:41:35.304Z,6.19
2023-04-27T02:42:35.392Z,6.16
2023-04-27T02:43:35.443Z,6.04
2023-04-27T02:44:35.558Z,6.05
2023-04-27T02:45:35.616Z,6.02
2023-04-27T02:46:35.705Z,6.03
2023-04-27T02:47:35.821Z,6.12
2023-04-27T02:48:35.860Z,6.09
2023-04-27T02:49:37.914Z,6.10
2023-04-27T02:50:35.910Z,6.01
2023-04-27T02:51:35.906Z,6.02
2023-04-27T02:52:35.913Z,6.04
2023-04-27T02:53:35.964Z,6.04
2023-04-27T02:54:36.032Z,5.96
2023-04-27T02:55:36.137Z,5.93
2023-04-27T02:56:36.146Z,5.94
2023-04-27T02:57:36.160Z,5.91
2023-04-27T02:58:36.234Z,5.91
2023-04-27T02:59:36.221Z,5.91
2023-04-27T03:00:36.233Z,5.99
2023-04-27T03:01:36.224Z,6.00
2023-04-27T03:02:36.402Z,5.82
2023-04-27T03:03:36.383Z,5.92
2023-04-27T03:04:36.402Z,5.94
2023-04-27T03:05:36.377Z,5.90
2023-04-27T03:06:36.388Z,5.89
2023-04-27T03:07:36.478Z,5.83
2023-04-27T03:08:36.376Z,5.93
2023-04-27T03:09:36.456Z,5.91
2023-04-27T03:10:36.451Z,5.73
2023-04-27T03:11:37.402Z,5.79
2023-04-27T03:12:36.553Z,5.78
2023-04-27T03:13:36.590Z,5.83
2023-04-27T03:14:36.592Z,5.75
2023-04-27T03:15:36.589Z,5.82
2023-04-27T03:16:36.711Z,5.72
2023-04-27T03:17:36.625Z,5.79
2023-04-27T03:18:36.660Z,5.91
2023-04-27T03:19:36.830Z,5.78
2023-04-27T03:20:36.825Z,5.81
2023-04-27T03:21:36.892Z,5.77
2023-04-27T03:22:36.939Z,5.75
2023-04-27T03:23:37.047Z,5.79
2023-04-27T03:24:36.978Z,5.71
2023-04-27T03:25:36.973Z,5.75
2023-04-27T03:26:36.966Z,5.72
2023-04-27T03:27:36.969Z,5.62
2023-04-27T03:28:37.035Z,5.73
2023-04-27T03:29:37.150Z,5.63
2023-04-27T03:30:37.248Z,5.74
2023-04-27T03:31:37.294Z,5.66
2023-04-27T03:32:37.276Z,5.63
2023-04-27T03:33:37.283Z,5.67
2023-04-27T03:34:37.274Z,5.64
2023-04-27T03:35:37.272Z,5.60
2023-04-27T03:36:37.280Z,5.60
2023-04-27T03:37:37.349Z,5.62
2023-04-27T03:38:37.462Z,5.54
2023-04-27T03:39:37.555Z,5.68
2023-04-27T03:40:37.535Z,5.63
2023-04-27T03:41:37.583Z,5.65
2023-04-27T03:42:37.560Z,5.58
2023-04-27T03:43:37.532Z,5.66
2023-04-27T03:44:37.543Z,5.53
2023-04-27T03:45:37.581Z,5.50
2023-04-27T03:46:37.663Z,5.51
2023-04-27T03:47:37.814Z,5.49
2023-04-27T03:48:37.883Z,5.57
2023-04-27T03:49:37.847Z,5.50
2023-04-27T03:50:37.854Z,5.59
2023-04-27T03:51:37.793Z,5.49
2023-04-27T03:52:37.823Z,5.44
2023-04-27T03:53:37.813Z,5.50
2023-04-27T03:54:37.872Z,5.50
2023-04-27T03:55:38.030Z,5.43
2023-04-27T03:56:38.093Z,5.54
2023-04-27T03:57:38.097Z,5.37
2023-04-27T03:58:38.052Z,5.34
2023-04-27T03:59:38.062Z,5.47
2023-04-27T04:00:38.081Z,5.37
2023-04-27T04:01:38.166Z,5.38
2023-04-27T04:02:38.278Z,5.39
2023-04-27T04:03:38.166Z,5.24
2023-04-27T04:04:38.416Z,5.08
2023-04-27T04:05:38.261Z,5.05
2023-04-27T04:06:38.362Z,4.83
2023-04-27T04:07:38.512Z,4.58
2023-04-27T04:08:38.483Z,4.48
2023-04-27T04:09:38.498Z,4.18
2023-04-27T04:10:38.527Z,4.10
2023-04-27T04:11:38.449Z,3.95
2023-04-27T04:12:38.558Z,3.79
2023-04-27T04:13:38.555Z,3.59
2023-04-27T04:14:38.546Z,3.60
2023-04-27T04:15:38.564Z,3.49
2023-04-27T04:16:38.540Z,3.42
2023-04-27T04:17:38.587Z,3.34
2023-04-27T04:18:38.667Z,3.11
2023-04-27T04:19:38.765Z,3.09
2023-04-27T04:20:38.844Z,2.96
2023-04-27T04:21:38.965Z,3.01
2023-04-27T04:22:39.004Z,2.93
2023-04-27T04:23:39.000Z,2.93
2023-04-27T04:24:39.005Z,2.96
2023-04-27T04:25:39.061Z,2.86
2023-04-27T04:26:39.062Z,2.77
2023-04-27T04:27:39.063Z,2.82
2023-04-27T04:28:39.077Z,2.70
2023-04-27T04:29:39.087Z,2.60
2023-04-27T04:30:39.144Z,2.63
2023-04-27T04:31:39.185Z,2.59
2023-04-27T04:32:39.176Z,2.62
2023-04-27T04:33:39.169Z,2.59
2023-04-27T04:34:39.183Z,2.64
2023-04-27T04:35:39.226Z,2.67
2023-04-27T04:36:39.240Z,2.68
2023-04-27T04:37:39.263Z,2.66
2023-04-27T04:38:39.238Z,2.71
2023-04-27T04:39:39.244Z,2.66
2023-04-27T04:40:39.276Z,2.72
2023-04-27T04:41:39.257Z,2.65
2023-04-27T04:42:39.292Z,2.69
2023-04-27T04:43:39.276Z,2.74
2023-04-27T04:44:39.303Z,2.72
2023-04-27T04:45:39.298Z,2.77
2023-04-27T04:46:39.360Z,2.78
2023-04-27T04:47:39.607Z,2.77
2023-04-27T04:48:39.565Z,2.82
2023-04-27T04:49:39.663Z,2.78
2023-04-27T04:50:39.686Z,2.79
2023-04-27T04:51:39.749Z,2.83
2023-04-27T04:52:39.745Z,2.78
2023-04-27T04:53:39.753Z,2.78
2023-04-27T04:54:39.705Z,2.81
2023-04-27T04:55:39.819Z,2.80
2023-04-27T04:56:39.927Z,2.79
2023-04-27T04:57:40.057Z,2.85
2023-04-27T04:58:40.133Z,2.76
2023-04-27T04:59:40.142Z,2.80
2023-04-27T05:00:40.156Z,2.82
2023-04-27T05:01:40.192Z,2.80
2023-04-27T05:02:40.343Z,2.80
2023-04-27T05:03:40.319Z,2.86
2023-04-27T05:04:40.375Z,2.86
2023-04-27T05:05:40.344Z,2.85
2023-04-27T05:06:40.456Z,2.80
2023-04-27T05:07:40.568Z,2.81
2023-04-27T05:08:40.648Z,2.82
2023-04-27T05:09:40.723Z,2.85
2023-04-27T05:10:40.886Z,2.76
2023-04-27T05:11:40.915Z,2.73
2023-04-27T05:12:41.090Z,2.79
2023-04-27T05:13:41.116Z,2.83
2023-04-27T05:14:41.218Z,2.74
2023-04-27T05:15:41.336Z,2.78
2023-04-27T05:16:41.565Z,2.75
2023-04-27T05:17:41.535Z,2.73
2023-04-27T05:18:41.510Z,2.76
2023-04-27T05:19:41.523Z,2.81
2023-04-27T05:20:41.530Z,2.74
2023-04-27T05:21:41.535Z,2.77
2023-04-27T05:22:41.548Z,2.66
2023-04-27T05:23:41.590Z,2.74
2023-04-27T05:24:41.699Z,2.77
2023-04-27T05:25:41.934Z,2.78
2023-04-27T05:26:41.769Z,2.72
2023-04-27T05:27:41.789Z,2.71
2023-04-27T05:28:41.832Z,2.69
2023-04-27T05:29:41.785Z,2.72
2023-04-27T05:30:41.900Z,2.76
2023-04-27T05:31:41.881Z,2.74
2023-04-27T05:32:41.882Z,2.77
2023-04-27T05:33:41.882Z,2.69
2023-04-27T05:34:41.871Z,2.66
2023-04-27T05:35:41.846Z,2.70
2023-04-27T05:36:41.891Z,2.76
2023-04-27T05:37:41.861Z,2.85
2023-04-27T05:38:41.921Z,2.87
2023-04-27T05:39:41.886Z,2.85
2023-04-27T05:40:41.857Z,2.91
2023-04-27T05:41:41.878Z,2.88
2023-04-27T05:42:41.945Z,2.87
2023-04-27T05:43:42.051Z,2.91
2023-04-27T05:44:42.195Z,2.85
2023-04-27T05:45:42.343Z,2.93
2023-04-27T05:46:42.268Z,2.89
2023-04-27T05:47:42.295Z,3.00
2023-04-27T05:48:42.289Z,2.99
2023-04-27T05:49:42.279Z,3.07
2023-04-27T05:50:42.281Z,3.12
2023-04-27T05:51:42.292Z,3.17
2023-04-27T05:52:42.633Z,3.21
2023-04-27T05:53:42.408Z,3.22
2023-04-27T05:54:42.478Z,3.20
2023-04-27T05:55:42.527Z,3.22
2023-04-27T05:56:42.591Z,3.27
2023-04-27T05:57:42.710Z,3.32
2023-04-27T05:58:42.717Z,3.38
2023-04-27T05:59:42.765Z,3.44
2023-04-27T06:00:42.822Z,3.51
2023-04-27T06:01:42.890Z,3.51
2023-04-27T06:02:43.304Z,3.62
2023-04-27T06:03:43.092Z,3.75
2023-04-27T06:04:43.058Z,3.80
2023-04-27T06:05:43.166Z,3.87
2023-04-27T06:06:43.131Z,3.91
2023-04-27T06:07:43.198Z,3.83
2023-04-27T06:08:43.219Z,3.83
2023-04-27T06:09:43.297Z,4.02
2023-04-27T06:10:43.316Z,4.09
2023-04-27T06:11:43.425Z,4.21
2023-04-27T06:12:45.755Z,4.11
2023-04-27T06:13:43.388Z,4.36
2023-04-27T06:14:43.430Z,4.47
2023-04-27T06:15:43.467Z,4.56
2023-04-27T06:16:43.355Z,4.66
2023-04-27T06:17:43.616Z,4.75
2023-04-27T06:18:43.404Z,4.72
2023-04-27T06:19:43.407Z,4.59
2023-04-27T06:20:43.307Z,4.46
2023-04-27T06:21:43.320Z,4.57
2023-04-27T06:22:43.336Z,4.59
2023-04-27T06:23:43.358Z,4.60
2023-04-27T06:24:43.290Z,4.55
2023-04-27T06:25:43.278Z,4.36
2023-04-27T06:26:43.314Z,4.55
2023-04-27T06:27:43.289Z,4.59
2023-04-27T06:28:43.625Z,4.55
2023-04-27T06:29:43.271Z,4.57
2023-04-27T06:30:43.282Z,4.69
2023-04-27T06:31:43.284Z,4.60
2023-04-27T06:32:44.141Z,4.60
2023-04-27T06:33:43.215Z,4.59
2023-04-27T06:34:43.221Z,4.68
2023-04-27T06:35:45.756Z,4.70
2023-04-27T06:36:43.214Z,4.71
2023-04-27T06:37:43.630Z,4.71
2023-04-27T06:38:43.273Z,4.71
2023-04-27T06:39:43.209Z,4.77
2023-04-27T06:40:43.192Z,4.86
2023-04-27T06:41:43.173Z,4.91
2023-04-27T06:42:43.205Z,5.04
2023-04-27T06:43:43.167Z,5.05
2023-04-27T06:44:43.159Z,5.18
2023-04-27T06:45:43.589Z,5.43
2023-04-27T06:46:43.168Z,5.39
2023-04-27T06:47:43.225Z,5.55
2023-04-27T06:48:43.119Z,5.37
2023-04-27T06:49:43.131Z,5.27
2023-04-27T06:50:43.132Z,5.06
2023-04-27T06:51:43.118Z,5.09
2023-04-27T06:52:43.240Z,4.92
2023-04-27T06:53:43.112Z,5.21
2023-04-27T06:54:43.128Z,5.36
2023-04-27T06:55:45.026Z,4.86
2023-04-27T06:56:43.102Z,4.87
2023-04-27T06:57:43.068Z,4.93
2023-04-27T06:58:43.076Z,4.94
2023-04-27T06:59:43.070Z,4.81
2023-04-27T07:00:43.065Z,4.98
2023-04-27T07:01:43.144Z,4.96
2023-04-27T07:02:43.099Z,4.75
2023-04-27T07:03:43.330Z,4.48
2023-04-27T07:04:43.053Z,4.50
2023-04-27T07:05:43.119Z,4.57
2023-04-27T07:06:43.032Z,4.34
2023-04-27T07:07:43.149Z,4.41
2023-04-27T07:08:43.047Z,4.57
2023-04-27T07:09:43.034Z,4.40
2023-04-27T07:10:43.347Z,4.77
2023-04-27T07:11:43.047Z,4.51
2023-04-27T07:12:42.967Z,4.48
2023-04-27T07:13:43.114Z,4.16
2023-04-27T07:14:42.958Z,3.99
2023-04-27T07:15:43.140Z,4.28
2023-04-27T07:16:42.970Z,4.05
2023-04-27T07:17:43.121Z,4.13
2023-04-27T07:18:43.600Z,4.14
2023-04-27T07:19:42.997Z,4.16
2023-04-27T07:20:42.953Z,4.27
2023-04-27T07:21:42.905Z,4.25
2023-04-27T07:22:42.900Z,4.16
2023-04-27T07:23:42.902Z,4.16
2023-04-27T07:24:42.882Z,4.09
2023-04-27T07:25:42.937Z,4.40
2023-04-27T07:26:43.130Z,4.06
2023-04-27T07:27:43.124Z,3.95
2023-04-27T07:28:42.870Z,4.29
2023-04-27T07:29:42.880Z,4.19
2023-04-27T07:30:43.127Z,4.29
2023-04-27T07:31:42.913Z,4.24
2023-04-27T07:32:43.000Z,3.90
